Terminal Aerodrome Forecast
Issued by NWS Wakefield, VA

Home | Current Version | Previous Version | Text Only | Print | Product List | Glossary On
Versions: 1 2 3 4 5 6 7 8 9 10 11 12 13 14 15 16 17 18 19 20 21 22 23 24 25 26 27
000
FTUS41 KAKQ 211541 AAB
TAFSBY
TAF AMD
KSBY 211541Z 2116/2212 23016G24KT P6SM OVC015
     FM211800 23015G25KT P6SM BKN035
     FM212300 21009KT P6SM SKC
     FM220500 23006KT P6SM SCT025
     FM220800 26004KT P6SM BKN012=

USA.gov is the U.S. government's official web portal to all federal, state and local government web resources and services.